Řízení letového provozu České republiky
Letiste: LKKB Aktualizace: 28.06.2017 05:06:13  UTC
 METAR LKKB 28.06. 05:00 ...
METAR LKKB 280500Z VRB03KT 0500 FG VV002 16/16 Q1004 NOSIG=
 TAF LKKB 27.06. 23:00 AAB
TAF AMD LKKB 272300Z 2801/2900 VRB02KT 2000 BR BKN002      TEMPO 2801/2804 0600 FG OVC002      BECMG 2806/2808 02008KT 5000 BR BKN012      BECMG 2808/2810 9999 SCT030      TEMPO 2810/2820 35014G28KT 4000 TSRA BKN027CB      PROB30 TEMPO 2812/2818 35016G36KT 1000 TSGR BKN027CB      BECMG 2816/2818 26008KT=